createdAt,value
2022-12-19T00:00:00.271Z,4.41
2022-12-19T00:02:33.805Z,4.42
2022-12-19T00:05:08.047Z,4.44
2022-12-19T00:07:42.287Z,4.47
2022-12-19T00:10:15.338Z,4.48
2022-12-19T00:12:48.163Z,4.47
2022-12-19T00:15:20.956Z,4.49
2022-12-19T00:17:53.739Z,4.51
2022-12-19T00:20:26.826Z,4.51
2022-12-19T00:23:00.964Z,4.52
2022-12-19T00:25:33.830Z,4.53
2022-12-19T00:28:08.197Z,4.54
2022-12-19T00:30:41.014Z,4.54
2022-12-19T00:33:14.134Z,4.54
2022-12-19T00:35:46.987Z,4.57
2022-12-19T00:38:21.208Z,4.58
2022-12-19T00:40:54.096Z,4.58
2022-12-19T00:43:26.904Z,4.59
2022-12-19T00:46:00.031Z,4.61
2022-12-19T00:48:33.050Z,4.60
2022-12-19T00:51:08.766Z,4.61
2022-12-19T00:53:44.620Z,4.60
2022-12-19T00:56:19.368Z,4.57
2022-12-19T00:58:53.917Z,4.55
2022-12-19T01:01:28.754Z,4.50
2022-12-19T01:06:59.775Z,4.43
2022-12-19T01:09:38.132Z,4.42
2022-12-19T01:12:29.488Z,4.38
2022-12-19T01:15:04.207Z,4.35
2022-12-19T01:17:43.980Z,4.36
2022-12-19T01:20:29.183Z,4.37
2022-12-19T01:23:02.955Z,4.37
2022-12-19T01:25:39.116Z,4.41
2022-12-19T01:28:16.717Z,4.43
2022-12-19T01:30:51.503Z,4.46
2022-12-19T01:33:25.099Z,4.51
2022-12-19T01:35:57.972Z,4.55
2022-12-19T01:38:31.186Z,4.59
2022-12-19T01:41:06.024Z,4.65
2022-12-19T01:43:58.424Z,4.68
2022-12-19T01:46:36.394Z,4.71
2022-12-19T01:49:15.706Z,4.74
2022-12-19T01:51:53.168Z,4.76
2022-12-19T01:54:30.813Z,4.80
2022-12-19T01:57:09.248Z,4.79
2022-12-19T01:59:45.245Z,4.81
2022-12-19T02:02:23.905Z,4.81
2022-12-19T02:04:57.154Z,4.79
2022-12-19T02:07:30.806Z,4.77
2022-12-19T02:10:04.048Z,4.73
2022-12-19T02:12:42.381Z,4.70
2022-12-19T02:15:18.299Z,4.66
2022-12-19T02:18:08.719Z,4.63
2022-12-19T02:21:24.034Z,4.58
2022-12-19T02:24:22.287Z,4.54
2022-12-19T02:27:04.148Z,4.53
2022-12-19T02:29:54.654Z,4.51
2022-12-19T02:32:36.132Z,4.53
2022-12-19T02:35:15.876Z,4.55
2022-12-19T02:37:53.988Z,4.57
2022-12-19T02:40:31.123Z,4.61
2022-12-19T02:43:06.020Z,4.65
2022-12-19T02:45:41.046Z,4.69
2022-12-19T02:48:19.330Z,4.71
2022-12-19T02:50:52.508Z,4.75
2022-12-19T02:53:25.345Z,4.78
2022-12-19T02:56:12.437Z,4.81
2022-12-19T02:59:02.134Z,4.83
2022-12-19T03:01:45.433Z,4.87
2022-12-19T03:04:33.382Z,4.87
2022-12-19T03:07:19.431Z,4.86
2022-12-19T03:09:58.427Z,4.88
2022-12-19T03:12:37.127Z,4.92
2022-12-19T03:15:10.557Z,4.91
2022-12-19T03:17:43.850Z,4.93
2022-12-19T03:20:25.431Z,4.98
2022-12-19T03:22:58.280Z,4.99
2022-12-19T03:25:32.083Z,5.01
2022-12-19T03:28:12.010Z,5.03
2022-12-19T03:30:47.629Z,5.02
2022-12-19T03:33:23.453Z,5.02
2022-12-19T03:36:00.547Z,5.01
2022-12-19T03:38:35.439Z,4.97
2022-12-19T03:41:12.078Z,4.93
2022-12-19T03:43:45.860Z,4.91
2022-12-19T03:46:25.760Z,4.91
2022-12-19T03:48:58.718Z,4.91
2022-12-19T03:51:39.550Z,4.93
2022-12-19T03:54:19.131Z,4.93
2022-12-19T03:56:59.281Z,4.93
2022-12-19T03:59:37.145Z,4.96
2022-12-19T04:02:11.761Z,4.94
2022-12-19T04:04:47.899Z,4.96
2022-12-19T04:07:24.324Z,4.94
2022-12-19T04:10:00.244Z,4.97
2022-12-19T04:12:38.509Z,4.98
2022-12-19T04:15:12.133Z,4.95
2022-12-19T04:17:49.417Z,4.97
2022-12-19T04:20:25.647Z,4.94
2022-12-19T04:23:04.195Z,4.96
2022-12-19T04:25:40.270Z,4.96
2022-12-19T04:28:18.551Z,4.96
2022-12-19T04:30:52.227Z,4.95
2022-12-19T04:33:25.079Z,4.96
2022-12-19T04:35:58.162Z,4.97
2022-12-19T04:38:33.154Z,5.00
2022-12-19T04:41:06.132Z,5.00
2022-12-19T04:43:39.361Z,5.03
2022-12-19T04:46:12.229Z,5.05
2022-12-19T04:48:45.159Z,5.07
2022-12-19T04:51:17.975Z,5.09
2022-12-19T04:53:52.262Z,5.11
2022-12-19T04:56:25.519Z,5.11
2022-12-19T04:58:59.085Z,5.10
2022-12-19T05:01:32.353Z,5.09
2022-12-19T05:04:06.456Z,5.08
2022-12-19T05:06:40.056Z,5.06
2022-12-19T05:09:14.632Z,5.05
2022-12-19T05:11:47.671Z,5.04
2022-12-19T05:14:21.325Z,5.07
2022-12-19T05:17:00.370Z,5.05
2022-12-19T05:19:34.391Z,5.05
2022-12-19T05:22:07.694Z,5.03
2022-12-19T05:24:42.059Z,5.03
2022-12-19T05:27:15.063Z,5.00
2022-12-19T05:29:49.556Z,5.00
2022-12-19T05:32:22.413Z,4.97
2022-12-19T05:34:55.437Z,4.97
2022-12-19T05:37:28.669Z,4.96
2022-12-19T05:40:03.021Z,4.98
2022-12-19T05:42:36.020Z,4.96
2022-12-19T05:45:09.847Z,4.98
2022-12-19T05:47:43.953Z,5.00
2022-12-19T05:50:17.714Z,5.00
2022-12-19T05:52:50.808Z,4.99
2022-12-19T05:55:25.387Z,5.00
2022-12-19T05:57:58.307Z,4.99
2022-12-19T06:00:31.957Z,4.97
2022-12-19T06:03:05.233Z,5.00
2022-12-19T06:05:40.103Z,5.00
2022-12-19T06:08:13.129Z,5.00
2022-12-19T06:10:47.678Z,5.01
2022-12-19T06:13:24.912Z,5.01
2022-12-19T06:16:00.095Z,4.97
2022-12-19T06:18:33.344Z,4.97
2022-12-19T06:21:08.607Z,4.96
2022-12-19T06:23:41.968Z,4.93
2022-12-19T06:26:20.151Z,4.91
2022-12-19T06:28:55.863Z,4.89
2022-12-19T06:31:29.318Z,4.86
2022-12-19T06:34:02.499Z,4.85
2022-12-19T06:36:36.056Z,4.83
2022-12-19T06:39:09.043Z,4.84
2022-12-19T06:42:01.096Z,4.88
2022-12-19T06:44:34.277Z,4.90
2022-12-19T06:47:07.313Z,4.95
2022-12-19T06:49:40.393Z,4.98
2022-12-19T06:52:13.516Z,5.01
2022-12-19T06:54:46.919Z,5.06
2022-12-19T06:57:21.939Z,5.09
2022-12-19T06:59:55.022Z,5.09
2022-12-19T07:02:31.256Z,5.12
2022-12-19T07:05:07.311Z,5.13
2022-12-19T07:07:41.318Z,5.12
2022-12-19T07:10:14.266Z,5.16
2022-12-19T07:12:48.697Z,5.15
2022-12-19T07:15:22.055Z,5.15
2022-12-19T07:17:55.460Z,5.18
2022-12-19T07:20:30.642Z,5.16
2022-12-19T07:23:04.714Z,5.15
2022-12-19T07:25:39.465Z,5.18
2022-12-19T07:28:14.437Z,5.19
2022-12-19T07:30:47.305Z,5.19
2022-12-19T07:33:22.947Z,5.21
2022-12-19T07:35:55.855Z,5.22
2022-12-19T07:38:28.758Z,5.22
2022-12-19T07:41:02.331Z,5.25
2022-12-19T07:43:36.673Z,5.23
2022-12-19T07:46:09.796Z,5.21
2022-12-19T07:48:43.055Z,5.22
2022-12-19T07:51:16.053Z,5.19
2022-12-19T07:53:49.188Z,5.19
2022-12-19T07:56:22.247Z,5.17
2022-12-19T07:58:56.837Z,5.16
2022-12-19T08:01:30.085Z,5.16
2022-12-19T08:04:03.360Z,5.12
2022-12-19T08:06:40.854Z,5.13
2022-12-19T08:09:14.943Z,5.10
2022-12-19T08:11:47.963Z,5.11
2022-12-19T08:14:22.809Z,5.14
2022-12-19T08:17:19.896Z,5.12
2022-12-19T08:19:48.556Z,5.16
2022-12-19T08:22:21.337Z,5.18
2022-12-19T08:24:54.257Z,5.20
2022-12-19T08:27:27.691Z,5.22
2022-12-19T08:30:02.167Z,5.26
2022-12-19T08:32:35.058Z,5.27
2022-12-19T08:35:09.008Z,5.30
2022-12-19T08:37:42.270Z,5.31
2022-12-19T08:40:15.963Z,5.35
2022-12-19T08:42:48.762Z,5.37
2022-12-19T08:45:23.235Z,5.39
2022-12-19T08:47:56.841Z,5.40
2022-12-19T08:50:29.639Z,5.43
2022-12-19T08:53:02.512Z,5.43
2022-12-19T08:55:36.853Z,5.46
2022-12-19T08:58:09.756Z,5.47
2022-12-19T09:00:46.523Z,5.47
2022-12-19T09:03:34.073Z,5.49
2022-12-19T09:06:20.228Z,5.51
2022-12-19T09:08:53.900Z,5.51
2022-12-19T09:11:33.347Z,5.53
2022-12-19T09:14:08.944Z,5.55
2022-12-19T09:16:43.115Z,5.58
2022-12-19T09:19:16.647Z,5.57
2022-12-19T09:21:49.394Z,5.59
2022-12-19T09:24:22.163Z,5.61
2022-12-19T09:26:55.010Z,5.62
2022-12-19T09:29:32.205Z,5.64
2022-12-19T09:32:09.516Z,5.68
2022-12-19T09:34:42.367Z,5.71
2022-12-19T09:37:17.697Z,5.74
2022-12-19T09:39:51.074Z,5.79
2022-12-19T09:42:51.595Z,5.85
2022-12-19T09:45:38.606Z,5.89
2022-12-19T09:48:23.602Z,5.90
2022-12-19T09:51:10.220Z,5.93
2022-12-19T09:53:58.346Z,5.98
2022-12-19T09:56:46.007Z,6.00
2022-12-19T09:59:39.709Z,6.07
2022-12-19T10:02:28.241Z,6.13
2022-12-19T10:05:34.838Z,6.19
2022-12-19T10:08:09.683Z,6.25
2022-12-19T10:12:39.116Z,6.34
2022-12-19T10:13:57.346Z,6.43
2022-12-19T10:16:56.321Z,6.51
2022-12-19T10:19:46.903Z,6.62
2022-12-19T10:22:29.327Z,6.70
2022-12-19T10:25:18.841Z,6.77
2022-12-19T10:27:59.158Z,6.85
2022-12-19T10:30:36.935Z,6.93
2022-12-19T10:33:20.673Z,7.04
2022-12-19T10:35:56.384Z,7.16
2022-12-19T10:38:50.320Z,7.29
2022-12-19T10:41:27.010Z,7.38
2022-12-19T10:44:05.720Z,7.48
2022-12-19T10:46:41.191Z,7.53
2022-12-19T10:49:17.290Z,7.57
2022-12-19T10:52:00.849Z,7.64
2022-12-19T10:54:44.100Z,7.67
2022-12-19T10:57:25.802Z,7.71
2022-12-19T11:00:00.605Z,7.72
2022-12-19T11:02:44.776Z,7.76
2022-12-19T11:05:27.592Z,7.78
2022-12-19T11:08:03.319Z,7.79
2022-12-19T11:11:04.287Z,7.82
2022-12-19T11:20:30.689Z,7.83
2022-12-19T11:23:32.790Z,7.83
2022-12-19T11:29:17.028Z,7.84
2022-12-19T11:29:30.356Z,7.86
2022-12-19T11:29:55.166Z,7.84
2022-12-19T11:30:48.000Z,7.85
2022-12-19T11:34:18.698Z,7.89
2022-12-19T11:36:56.937Z,7.94
2022-12-19T11:39:36.454Z,7.98
2022-12-19T11:42:16.672Z,8.03
2022-12-19T11:44:57.177Z,8.08
2022-12-19T11:47:38.068Z,8.12
2022-12-19T11:50:16.479Z,8.15
2022-12-19T11:53:12.992Z,8.21
2022-12-19T11:55:54.114Z,8.25
2022-12-19T11:58:29.973Z,8.28
2022-12-19T12:01:15.538Z,8.33
2022-12-19T12:04:09.049Z,8.39
2022-12-19T12:06:49.141Z,8.42
2022-12-19T12:14:52.161Z,8.46
2022-12-19T12:19:27.933Z,8.48
2022-12-19T12:30:53.667Z,8.52
2022-12-19T12:31:17.721Z,8.56
2022-12-19T12:31:38.743Z,8.68
2022-12-19T12:31:54.115Z,8.75
2022-12-19T12:31:58.103Z,8.61
2022-12-19T12:31:58.825Z,8.64
2022-12-19T12:35:32.769Z,8.80
2022-12-19T12:38:12.271Z,8.85
2022-12-19T12:40:23.624Z,8.90
2022-12-19T12:43:08.196Z,8.89
2022-12-19T12:45:43.211Z,8.91
2022-12-19T12:48:24.638Z,8.93
2022-12-19T12:51:01.349Z,8.94
2022-12-19T12:53:38.230Z,8.95
2022-12-19T12:56:13.987Z,8.92
2022-12-19T12:59:06.344Z,8.90
2022-12-19T13:01:42.219Z,8.86
2022-12-19T13:04:25.294Z,8.83
2022-12-19T13:07:16.425Z,8.79
2022-12-19T13:09:55.643Z,8.73
2022-12-19T13:12:46.899Z,8.65
2022-12-19T13:15:37.049Z,8.63
2022-12-19T13:18:38.765Z,8.59
2022-12-19T13:21:11.585Z,8.56
2022-12-19T13:23:48.572Z,8.58
2022-12-19T13:26:38.968Z,8.58
2022-12-19T13:29:29.732Z,8.59
2022-12-19T13:32:14.429Z,8.57
2022-12-19T13:35:02.825Z,8.56
2022-12-19T13:39:51.095Z,8.54
2022-12-19T13:40:57.344Z,8.51
2022-12-19T13:43:47.969Z,8.49
2022-12-19T13:46:32.296Z,8.47
2022-12-19T13:49:08.292Z,8.44
2022-12-19T13:51:48.107Z,8.42
2022-12-19T13:54:23.995Z,8.37
2022-12-19T13:56:58.254Z,8.35
2022-12-19T13:59:38.937Z,8.31
2022-12-19T14:02:19.075Z,8.29
2022-12-19T14:04:52.478Z,8.22
2022-12-19T14:07:37.427Z,8.21
2022-12-19T14:11:44.168Z,8.16
2022-12-19T14:13:44.688Z,8.10
2022-12-19T14:16:34.719Z,8.03
2022-12-19T14:19:20.887Z,7.94
2022-12-19T14:22:05.492Z,7.86
2022-12-19T14:24:55.289Z,7.81
2022-12-19T14:28:20.710Z,7.75
2022-12-19T14:30:52.648Z,7.70
2022-12-19T14:33:45.140Z,7.68
2022-12-19T14:36:29.238Z,7.62
2022-12-19T14:39:23.899Z,7.58
2022-12-19T14:42:20.401Z,7.57
2022-12-19T14:51:09.062Z,7.55
2022-12-19T14:53:10.880Z,7.50
2022-12-19T14:54:29.062Z,7.46
2022-12-19T14:56:08.664Z,7.39
2022-12-19T14:58:50.472Z,7.37
2022-12-19T15:01:10.369Z,7.29
2022-12-19T15:03:21.321Z,7.22
2022-12-19T15:06:19.750Z,7.14
2022-12-19T15:10:59.006Z,7.04
2022-12-19T15:14:46.784Z,6.95
2022-12-19T15:15:22.883Z,6.88
2022-12-19T15:17:56.773Z,6.76
2022-12-19T15:20:29.671Z,6.69
2022-12-19T15:23:04.149Z,6.63
2022-12-19T15:26:02.874Z,6.54
2022-12-19T15:28:37.801Z,6.49
2022-12-19T15:31:26.969Z,6.39
2022-12-19T15:34:32.858Z,6.30
2022-12-19T15:36:54.014Z,6.22
2022-12-19T15:39:30.524Z,6.16
2022-12-19T15:42:03.950Z,6.06
2022-12-19T15:44:39.115Z,6.02
2022-12-19T15:47:18.365Z,5.96
2022-12-19T15:49:51.281Z,5.89
2022-12-19T15:52:25.718Z,5.82
2022-12-19T15:54:59.927Z,5.76
2022-12-19T15:57:36.430Z,5.72
2022-12-19T16:00:18.501Z,5.66
2022-12-19T16:05:46.031Z,5.54
2022-12-19T16:08:22.844Z,5.50
2022-12-19T16:11:01.718Z,5.45
2022-12-19T16:13:36.161Z,5.39
2022-12-19T16:16:15.829Z,5.35
2022-12-19T16:18:49.497Z,5.29
2022-12-19T16:21:31.574Z,5.26
2022-12-19T16:24:07.251Z,5.22
2022-12-19T16:26:41.849Z,5.19
2022-12-19T16:29:20.159Z,5.18
2022-12-19T16:31:53.101Z,5.13
2022-12-19T16:34:28.937Z,5.10
2022-12-19T16:37:01.999Z,5.08
2022-12-19T16:39:34.970Z,5.08
2022-12-19T16:42:15.671Z,5.08
2022-12-19T16:44:49.319Z,5.05
2022-12-19T16:47:22.871Z,5.02
2022-12-19T16:49:55.813Z,4.99
2022-12-19T16:52:28.890Z,4.98
2022-12-19T16:55:02.036Z,4.96
2022-12-19T16:57:36.480Z,4.95
2022-12-19T17:00:16.134Z,4.95
2022-12-19T17:02:51.590Z,4.96
2022-12-19T17:05:26.585Z,4.94
2022-12-19T17:08:00.119Z,4.93
2022-12-19T17:10:35.120Z,4.94
2022-12-19T17:13:14.093Z,4.94
2022-12-19T17:15:52.624Z,4.89
2022-12-19T17:18:31.874Z,4.89
2022-12-19T17:21:04.838Z,4.89
2022-12-19T17:23:37.675Z,4.87
2022-12-19T17:26:17.298Z,4.88
2022-12-19T17:28:52.146Z,4.88
2022-12-19T17:31:29.085Z,4.90
2022-12-19T17:34:02.215Z,4.88
2022-12-19T17:36:37.863Z,4.91
2022-12-19T17:39:20.236Z,4.94
2022-12-19T17:41:54.261Z,4.92
2022-12-19T17:44:28.771Z,4.96
2022-12-19T17:47:01.747Z,4.97
2022-12-19T17:49:36.000Z,4.99
2022-12-19T17:52:14.633Z,5.01
2022-12-19T17:54:47.951Z,5.01
2022-12-19T17:57:20.807Z,5.04
2022-12-19T17:59:55.012Z,5.05
2022-12-19T18:02:28.693Z,5.08
2022-12-19T18:05:01.799Z,5.11
2022-12-19T18:07:34.678Z,5.12
2022-12-19T18:10:16.044Z,5.16
2022-12-19T18:12:49.017Z,5.17
2022-12-19T18:15:24.691Z,5.21
2022-12-19T18:17:58.825Z,5.23
2022-12-19T18:20:33.754Z,5.25
2022-12-19T18:23:15.344Z,5.28
2022-12-19T18:25:49.095Z,5.31
2022-12-19T18:28:22.006Z,5.30
2022-12-19T18:31:01.289Z,5.35
2022-12-19T18:33:39.273Z,5.38
2022-12-19T18:36:19.768Z,5.39
2022-12-19T18:38:55.093Z,5.38
2022-12-19T18:41:28.048Z,5.40
2022-12-19T18:44:00.907Z,5.41
2022-12-19T18:46:35.910Z,5.43
2022-12-19T18:49:13.697Z,5.43
2022-12-19T18:51:46.664Z,5.43
2022-12-19T18:54:21.634Z,5.45
2022-12-19T18:56:54.472Z,5.45
2022-12-19T18:59:27.728Z,5.43
2022-12-19T19:02:02.222Z,5.44
2022-12-19T19:04:35.312Z,5.42
2022-12-19T19:07:11.190Z,5.41
2022-12-19T19:09:44.057Z,5.39
2022-12-19T19:12:17.865Z,5.37
2022-12-19T19:14:50.717Z,5.34
2022-12-19T19:17:30.522Z,5.32
2022-12-19T19:20:04.135Z,5.30
2022-12-19T19:22:36.937Z,5.29
2022-12-19T19:25:10.613Z,5.28
2022-12-19T19:27:43.534Z,5.27
2022-12-19T19:30:16.810Z,5.25
2022-12-19T19:32:55.235Z,5.25
2022-12-19T19:35:28.702Z,5.25
2022-12-19T19:38:06.651Z,5.25
2022-12-19T19:40:39.717Z,5.23
2022-12-19T19:43:12.819Z,5.20
2022-12-19T19:45:46.870Z,5.19
2022-12-19T19:48:21.370Z,5.19
2022-12-19T19:50:54.389Z,5.17
2022-12-19T19:53:27.389Z,5.16
2022-12-19T19:56:01.962Z,5.16
2022-12-19T19:58:34.930Z,5.15
2022-12-19T20:01:09.332Z,5.14
2022-12-19T20:03:44.858Z,5.16
2022-12-19T20:06:19.285Z,5.15
2022-12-19T20:08:52.238Z,5.16
2022-12-19T20:11:25.094Z,5.15
2022-12-19T20:13:58.055Z,5.16
2022-12-19T20:16:32.248Z,5.15
2022-12-19T20:19:08.778Z,5.18
2022-12-19T20:21:41.777Z,5.15
2022-12-19T20:24:14.682Z,5.17
2022-12-19T20:26:47.798Z,5.17
2022-12-19T20:29:20.755Z,5.18
2022-12-19T20:31:53.891Z,5.19
2022-12-19T20:34:28.147Z,5.21
2022-12-19T20:37:01.085Z,5.23
2022-12-19T20:39:34.464Z,5.26
2022-12-19T20:42:09.496Z,5.27
2022-12-19T20:44:42.376Z,5.27
2022-12-19T20:47:15.722Z,5.27
2022-12-19T20:49:50.014Z,5.29
2022-12-19T20:52:22.889Z,5.29
2022-12-19T20:54:55.751Z,5.31
2022-12-19T20:57:30.437Z,5.29
2022-12-19T21:00:03.496Z,5.29
2022-12-19T21:02:59.946Z,5.30
2022-12-19T21:05:30.533Z,5.31
2022-12-19T21:08:03.489Z,5.34
2022-12-19T21:10:37.313Z,5.35
2022-12-19T21:13:10.332Z,5.35
2022-12-19T21:15:43.335Z,5.35
2022-12-19T21:18:16.468Z,5.38
2022-12-19T21:20:51.105Z,5.40
2022-12-19T21:23:25.366Z,5.41
2022-12-19T21:25:59.839Z,5.42
2022-12-19T21:28:33.416Z,5.42
2022-12-19T21:31:08.968Z,5.45
2022-12-19T21:33:41.861Z,5.45
2022-12-19T21:36:20.231Z,5.46
2022-12-19T21:38:55.568Z,5.48
2022-12-19T21:41:29.522Z,5.48
2022-12-19T21:44:02.455Z,5.50
2022-12-19T21:46:35.357Z,5.51
2022-12-19T21:49:08.741Z,5.53
2022-12-19T21:51:43.008Z,5.55
2022-12-19T21:54:16.102Z,5.57
2022-12-19T21:56:49.211Z,5.57
2022-12-19T21:59:22.156Z,5.60
2022-12-19T22:01:55.151Z,5.62
2022-12-19T22:04:28.625Z,5.64
2022-12-19T22:07:05.660Z,5.66
2022-12-19T22:09:38.521Z,5.65
2022-12-19T22:12:14.017Z,5.66
2022-12-19T22:14:46.937Z,5.67
2022-12-19T22:17:19.899Z,5.67
2022-12-19T22:19:52.773Z,5.68
2022-12-19T22:22:26.975Z,5.70
2022-12-19T22:25:00.145Z,5.69
2022-12-19T22:27:33.108Z,5.68
2022-12-19T22:30:11.129Z,5.70
2022-12-19T22:32:44.312Z,5.69
2022-12-19T22:35:17.826Z,5.70
2022-12-19T22:37:52.120Z,5.71
2022-12-19T22:40:24.989Z,5.68
2022-12-19T22:42:57.893Z,5.70
2022-12-19T22:45:31.744Z,5.69
2022-12-19T22:48:04.776Z,5.69
2022-12-19T22:50:37.743Z,5.67
2022-12-19T22:53:13.068Z,5.67
2022-12-19T22:55:46.080Z,5.66
2022-12-19T22:58:18.932Z,5.63
2022-12-19T23:00:51.868Z,5.62
2022-12-19T23:03:24.826Z,5.62
2022-12-19T23:05:57.885Z,5.60
2022-12-19T23:08:32.436Z,5.60
2022-12-19T23:11:05.853Z,5.58
2022-12-19T23:13:38.745Z,5.59
2022-12-19T23:16:13.306Z,5.57
2022-12-19T23:18:46.314Z,5.57
2022-12-19T23:21:21.454Z,5.57
2022-12-19T23:23:57.142Z,5.57
2022-12-19T23:26:32.674Z,5.58
2022-12-19T23:29:07.950Z,5.56
2022-12-19T23:31:42.876Z,5.57
2022-12-19T23:34:16.453Z,5.55
2022-12-19T23:39:43.414Z,5.57
2022-12-19T23:42:16.192Z,5.56
2022-12-19T23:44:51.411Z,5.56
2022-12-19T23:47:24.234Z,5.56
2022-12-19T23:49:57.097Z,5.57
2022-12-19T23:52:30.098Z,5.58
2022-12-19T23:55:05.339Z,5.61
2022-12-19T23:57:38.291Z,5.60
